Time;durP1;ratioP1;P1;durP2;ratioP2;P2;SDS_P1;SDS_P2;PMS_P1;PMS_P2;Temp;Humidity;BMP_temperature;BMP_pressure;BME280_temperature;BME280_humidity;BME280_pressure;Samples;Min_cycle;Max_cycle;Signal;HPM_P1;HPM_P2
2022/01/03 00:00:57;;;;;;;;;;;19.90;52.80;;;;;;4969291;28;19914;-63
2022/01/03 00:03:23;;;;;;;;;;;19.80;52.90;;;;;;4954119;29;19914;-62
2022/01/03 00:05:48;;;;;;;;;;;19.80;52.90;;;;;;4954736;29;19921;-62
2022/01/03 00:08:14;;;;;;;;;;;19.80;52.90;;;;;;4953409;29;19917;-62
2022/01/03 00:10:39;;;;;;;;;;;19.80;52.90;;;;;;4954251;29;19926;-62
2022/01/03 00:13:05;;;;;;;;;;;19.80;52.90;;;;;;4984891;28;19990;-62
2022/01/03 00:15:30;;;;;;;;;;;19.80;52.90;;;;;;4954228;29;19914;-63
2022/01/03 00:17:56;;;;;;;;;;;19.80;53.10;;;;;;4954239;29;20290;-62
2022/01/03 00:20:21;;;;;;;;;;;19.80;53.00;;;;;;4954528;28;19957;-62
2022/01/03 00:22:47;;;;;;;;;;;19.80;53.10;;;;;;4950555;28;20368;-63
2022/01/03 00:25:16;;;;;;;;;;;19.80;53.10;;;;;;4935151;29;19962;-62
2022/01/03 00:27:41;;;;;;;;;;;19.80;53.40;;;;;;4947840;28;19925;-62
2022/01/03 00:30:07;;;;;;;;;;;19.80;53.50;;;;;;4955184;28;19911;-62
2022/01/03 00:32:34;;;;;;;;;;;19.80;53.50;;;;;;4953575;28;19911;-62
2022/01/03 00:34:59;;;;;;;;;;;19.80;53.50;;;;;;4985393;28;19970;-62
2022/01/03 00:37:25;;;;;;;;;;;19.80;53.70;;;;;;4984109;28;20425;-62
2022/01/03 00:39:50;;;;;;;;;;;19.80;53.70;;;;;;4953944;29;19914;-62
2022/01/03 00:42:16;;;;;;;;;;;19.80;53.70;;;;;;4953730;28;19915;-62
2022/01/03 00:44:41;;;;;;;;;;;19.70;53.60;;;;;;4952525;29;19950;-61
2022/01/03 00:47:07;;;;;;;;;;;19.70;53.60;;;;;;4953337;29;19915;-62
2022/01/03 00:49:32;;;;;;;;;;;19.70;53.60;;;;;;4953787;29;19925;-62
2022/01/03 00:51:58;;;;;;;;;;;19.70;54.40;;;;;;4983402;28;19949;-61
2022/01/03 00:54:23;;;;;;;;;;;19.70;53.70;;;;;;4953428;29;19915;-62
2022/01/03 00:56:50;;;;;;;;;;;19.60;53.60;;;;;;4953039;28;20012;-63
2022/01/03 00:59:17;;;;;;;;;;;19.60;53.60;;;;;;4984619;28;19914;-62
2022/01/03 01:01:46;;;;;;;;;;;19.60;53.60;;;;;;4967292;28;20356;-63
2022/01/03 01:04:11;;;;;;;;;;;19.50;53.50;;;;;;4953611;29;20017;-62
2022/01/03 01:06:37;;;;;;;;;;;19.60;54.20;;;;;;4983620;28;20001;-62
2022/01/03 01:09:04;;;;;;;;;;;19.60;53.50;;;;;;4984696;28;19929;-62
2022/01/03 01:11:30;;;;;;;;;;;19.60;53.50;;;;;;4953352;29;19919;-62
2022/01/03 01:13:55;;;;;;;;;;;19.50;53.50;;;;;;4953472;29;20372;-62
2022/01/03 01:16:21;;;;;;;;;;;19.50;53.50;;;;;;4952601;29;19910;-62
2022/01/03 01:18:48;;;;;;;;;;;19.50;53.50;;;;;;4949762;29;21306;-62
2022/01/03 01:21:14;;;;;;;;;;;19.50;53.50;;;;;;4947721;29;19914;-62
2022/01/03 01:23:41;;;;;;;;;;;19.50;53.60;;;;;;4946229;29;19949;-62
2022/01/03 01:28:51;;;;;;;;;;;19.50;53.60;;;;;;4958823;28;19937;-62
2022/01/03 01:31:19;;;;;;;;;;;19.40;53.50;;;;;;4947442;29;19938;-62
2022/01/03 01:33:44;;;;;;;;;;;19.40;53.50;;;;;;4945920;29;19915;-62
2022/01/03 01:36:10;;;;;;;;;;;19.40;53.30;;;;;;4936216;29;19966;-62
2022/01/03 01:38:36;;;;;;;;;;;19.40;53.40;;;;;;4952884;29;20466;-62
2022/01/03 01:41:02;;;;;;;;;;;19.30;53.40;;;;;;4953709;29;20329;-62
2022/01/03 01:43:27;;;;;;;;;;;19.40;53.50;;;;;;4953462;29;20497;-62
2022/01/03 01:45:53;;;;;;;;;;;19.30;53.40;;;;;;4953470;29;19919;-62
2022/01/03 01:48:19;;;;;;;;;;;19.30;53.50;;;;;;4953361;29;19915;-62
2022/01/03 01:50:45;;;;;;;;;;;19.30;53.50;;;;;;4953186;29;19922;-62
2022/01/03 01:53:10;;;;;;;;;;;19.30;53.50;;;;;;4983401;28;20406;-61
2022/01/03 01:55:39;;;;;;;;;;;19.30;53.50;;;;;;4984935;28;19914;-61
2022/01/03 01:58:05;;;;;;;;;;;19.30;53.70;;;;;;4956782;29;20288;-62
2022/01/03 02:00:31;;;;;;;;;;;19.30;53.70;;;;;;4988167;28;20001;-62
2022/01/03 02:03:16;;;;;;;;;;;19.20;53.70;;;;;;4956486;29;19937;-62
2022/01/03 02:05:41;;;;;;;;;;;19.20;53.80;;;;;;4955745;29;19910;-62
2022/01/03 02:08:07;;;;;;;;;;;19.20;53.80;;;;;;4956042;29;19915;-62
2022/01/03 02:10:41;;;;;;;;;;;19.20;53.80;;;;;;4987817;28;20410;-62
2022/01/03 02:13:06;;;;;;;;;;;19.20;53.60;;;;;;4956406;29;19966;-62
2022/01/03 02:15:32;;;;;;;;;;;19.30;53.70;;;;;;4987156;28;19954;-62
2022/01/03 02:17:58;;;;;;;;;;;19.30;53.60;;;;;;4956445;29;20437;-62
2022/01/03 02:20:26;;;;;;;;;;;19.30;53.60;;;;;;4956034;29;20013;-62
2022/01/03 02:22:51;;;;;;;;;;;19.30;53.80;;;;;;4982640;28;19910;-62
2022/01/03 02:25:18;;;;;;;;;;;19.20;53.90;;;;;;4939306;29;19918;-62
2022/01/03 02:27:43;;;;;;;;;;;19.20;54.00;;;;;;4956393;29;20001;-62
2022/01/03 02:30:10;;;;;;;;;;;19.20;54.00;;;;;;4971657;28;20004;-62
2022/01/03 02:32:35;;;;;;;;;;;19.30;54.30;;;;;;4955265;29;20363;-62
2022/01/03 02:35:01;;;;;;;;;;;19.40;54.10;;;;;;4987166;28;19953;-62
2022/01/03 02:37:26;;;;;;;;;;;19.50;53.80;;;;;;4955387;29;19997;-62
2022/01/03 02:39:52;;;;;;;;;;;19.70;53.60;;;;;;4987430;28;19953;-62
2022/01/03 02:42:23;;;;;;;;;;;19.90;53.30;;;;;;4987068;28;20389;-61
2022/01/03 02:44:57;;;;;;;;;;;20.10;52.90;;;;;;4992408;28;19910;-62
2022/01/03 02:47:23;;;;;;;;;;;20.30;52.50;;;;;;4956316;29;19938;-63
2022/01/03 02:49:48;;;;;;;;;;;20.40;52.30;;;;;;4955969;29;20355;-62
2022/01/03 02:52:14;;;;;;;;;;;20.40;52.10;;;;;;4955191;29;20294;-61
2022/01/03 02:54:39;;;;;;;;;;;20.40;52.00;;;;;;4956029;29;19914;-62
2022/01/03 02:57:05;;;;;;;;;;;20.40;51.90;;;;;;4955713;28;19918;-62
2022/01/03 02:59:30;;;;;;;;;;;20.40;51.90;;;;;;4985554;28;19919;-62
2022/01/03 03:01:56;;;;;;;;;;;20.50;51.90;;;;;;4940394;29;20017;-62
2022/01/03 03:04:21;;;;;;;;;;;20.50;51.80;;;;;;4955731;29;20439;-62
2022/01/03 03:06:46;;;;;;;;;;;20.40;51.70;;;;;;4954750;28;19919;-62
2022/01/03 03:09:13;;;;;;;;;;;20.50;51.70;;;;;;4955718;29;19919;-62
2022/01/03 03:11:38;;;;;;;;;;;20.60;51.70;;;;;;4955533;29;19921;-62
2022/01/03 03:14:04;;;;;;;;;;;20.60;51.50;;;;;;4955698;29;19914;-62
2022/01/03 03:16:29;;;;;;;;;;;20.60;51.30;;;;;;4954280;29;20405;-62
2022/01/03 03:18:54;;;;;;;;;;;20.60;51.20;;;;;;4955117;29;19923;-62
2022/01/03 03:21:20;;;;;;;;;;;20.60;51.20;;;;;;4954849;29;19969;-62
2022/01/03 03:23:45;;;;;;;;;;;20.60;51.20;;;;;;4949530;29;19974;-62
2022/01/03 03:26:11;;;;;;;;;;;20.60;51.20;;;;;;4986611;28;19914;-62
2022/01/03 03:28:36;;;;;;;;;;;20.60;51.20;;;;;;4955642;28;20026;-62
2022/01/03 03:31:02;;;;;;;;;;;20.60;51.10;;;;;;4970501;28;19917;-62
2022/01/03 03:33:29;;;;;;;;;;;20.60;51.10;;;;;;4955100;29;20005;-62
2022/01/03 03:35:55;;;;;;;;;;;20.60;51.10;;;;;;4955429;29;19914;-62
2022/01/03 03:38:23;;;;;;;;;;;20.60;51.10;;;;;;4984953;28;19915;-62
2022/01/03 03:40:49;;;;;;;;;;;20.60;50.90;;;;;;4985742;28;19915;-62
2022/01/03 03:43:14;;;;;;;;;;;20.60;50.90;;;;;;4986048;28;19917;-62
2022/01/03 03:45:40;;;;;;;;;;;20.60;50.90;;;;;;4955449;29;19918;-62
2022/01/03 03:48:06;;;;;;;;;;;20.70;50.90;;;;;;4954973;29;19917;-62
2022/01/03 03:50:31;;;;;;;;;;;20.70;50.90;;;;;;4941228;28;19985;-62
2022/01/03 03:52:56;;;;;;;;;;;20.70;50.80;;;;;;4944044;29;19965;-62
2022/01/03 03:55:22;;;;;;;;;;;20.70;50.70;;;;;;4954971;29;19922;-62
2022/01/03 03:57:47;;;;;;;;;;;20.70;50.70;;;;;;4954447;29;19950;-62
2022/01/03 04:00:15;;;;;;;;;;;20.70;50.70;;;;;;4955231;29;20004;-62
2022/01/03 04:02:40;;;;;;;;;;;20.70;50.70;;;;;;4954639;29;20386;-62
2022/01/03 04:05:06;;;;;;;;;;;20.80;50.60;;;;;;4969695;28;19915;-62
2022/01/03 04:07:31;;;;;;;;;;;20.80;50.60;;;;;;4954086;28;20055;-62
2022/01/03 04:09:57;;;;;;;;;;;20.80;50.60;;;;;;4954653;29;19969;-62
2022/01/03 04:12:22;;;;;;;;;;;20.70;50.60;;;;;;4954410;29;20260;-62
2022/01/03 04:14:48;;;;;;;;;;;20.70;50.60;;;;;;4954091;28;20283;-62
2022/01/03 04:17:14;;;;;;;;;;;20.70;50.70;;;;;;4985143;28;19914;-62
2022/01/03 04:19:39;;;;;;;;;;;20.70;50.80;;;;;;4953873;28;19918;-62
2022/01/03 04:22:05;;;;;;;;;;;20.60;50.70;;;;;;4953420;29;19918;-62
2022/01/03 04:24:30;;;;;;;;;;;20.60;51.50;;;;;;4940740;29;20363;-62
2022/01/03 04:26:56;;;;;;;;;;;20.50;50.90;;;;;;4952847;29;19914;-62
2022/01/03 04:29:21;;;;;;;;;;;20.40;51.00;;;;;;4954808;29;20008;-62
2022/01/03 04:31:47;;;;;;;;;;;20.40;51.10;;;;;;4941623;29;19911;-62
2022/01/03 04:34:13;;;;;;;;;;;20.40;51.20;;;;;;4935164;29;20299;-62
2022/01/03 04:36:39;;;;;;;;;;;20.40;51.20;;;;;;4934323;29;19910;-62
2022/01/03 04:39:04;;;;;;;;;;;20.40;51.30;;;;;;4935034;29;20356;-62
2022/01/03 04:41:30;;;;;;;;;;;20.40;51.20;;;;;;4972552;28;19919;-62
2022/01/03 04:43:55;;;;;;;;;;;20.40;51.20;;;;;;4954128;29;19953;-62
2022/01/03 04:46:21;;;;;;;;;;;20.40;51.10;;;;;;4953881;29;19925;-62
2022/01/03 04:48:46;;;;;;;;;;;20.40;51.10;;;;;;4953663;29;19922;-62
2022/01/03 04:51:12;;;;;;;;;;;20.50;51.20;;;;;;4953436;29;19919;-62
2022/01/03 04:53:39;;;;;;;;;;;20.50;50.90;;;;;;4953649;29;19921;-62
2022/01/03 04:56:06;;;;;;;;;;;20.50;50.90;;;;;;4984335;28;20017;-62
2022/01/03 04:58:32;;;;;;;;;;;20.50;50.90;;;;;;4968393;28;19919;-62
2022/01/03 05:00:57;;;;;;;;;;;20.50;50.80;;;;;;4948133;29;20009;-62
2022/01/03 05:03:23;;;;;;;;;;;20.50;50.90;;;;;;4953463;29;20386;-62
2022/01/03 05:05:48;;;;;;;;;;;20.50;50.90;;;;;;4952517;29;20354;-62
2022/01/03 05:08:14;;;;;;;;;;;20.60;50.90;;;;;;4952980;29;19910;-62
2022/01/03 05:10:39;;;;;;;;;;;20.60;50.90;;;;;;4953994;29;20248;-62
2022/01/03 05:13:05;;;;;;;;;;;20.60;50.90;;;;;;4953883;29;19915;-61
2022/01/03 05:15:30;;;;;;;;;;;20.60;50.90;;;;;;4953674;29;19922;-62
2022/01/03 05:17:56;;;;;;;;;;;20.60;50.90;;;;;;4953721;29;19911;-62
2022/01/03 05:20:21;;;;;;;;;;;20.60;50.80;;;;;;4953567;29;20025;-62
2022/01/03 05:22:47;;;;;;;;;;;20.60;50.90;;;;;;4982529;28;19919;-61
2022/01/03 05:25:12;;;;;;;;;;;20.60;50.90;;;;;;4983720;28;19915;-62
2022/01/03 05:27:39;;;;;;;;;;;20.50;50.90;;;;;;4953867;29;19918;-62
2022/01/03 05:30:05;;;;;;;;;;;20.50;50.90;;;;;;4955264;28;19933;-62
2022/01/03 05:32:31;;;;;;;;;;;20.50;50.90;;;;;;4957408;28;20363;-62
2022/01/03 05:34:56;;;;;;;;;;;20.60;50.90;;;;;;4957543;29;19921;-62
2022/01/03 05:37:22;;;;;;;;;;;20.50;50.90;;;;;;4956654;29;19914;-62
2022/01/03 05:39:47;;;;;;;;;;;20.50;50.80;;;;;;4957392;28;19970;-62
2022/01/03 05:42:13;;;;;;;;;;;20.60;50.90;;;;;;4956986;29;20268;-62
2022/01/03 05:44:38;;;;;;;;;;;20.60;50.90;;;;;;4957341;29;19921;-62
2022/01/03 05:47:04;;;;;;;;;;;20.60;50.90;;;;;;4957348;28;19918;-62
2022/01/03 05:49:29;;;;;;;;;;;20.60;50.90;;;;;;4957201;29;19920;-62
2022/01/03 05:51:54;;;;;;;;;;;20.60;50.80;;;;;;4956210;29;19914;-62
2022/01/03 05:54:20;;;;;;;;;;;20.60;50.70;;;;;;4971698;28;20299;-62
2022/01/03 05:56:45;;;;;;;;;;;20.60;50.70;;;;;;4956748;29;20291;-63
2022/01/03 05:59:11;;;;;;;;;;;20.60;50.80;;;;;;4988214;28;19961;-62
2022/01/03 06:01:37;;;;;;;;;;;20.60;50.80;;;;;;4956802;29;19919;-63
2022/01/03 06:04:14;;;;;;;;;;;20.60;50.80;;;;;;4957030;29;19914;-62
2022/01/03 06:06:53;;;;;;;;;;;20.60;50.70;;;;;;4962354;28;20358;-62
2022/01/03 06:09:18;;;;;;;;;;;20.60;50.70;;;;;;4956689;29;19924;-62
2022/01/03 06:11:44;;;;;;;;;;;20.60;50.70;;;;;;4956571;29;19914;-62
2022/01/03 06:14:09;;;;;;;;;;;20.60;50.80;;;;;;4987397;28;19934;-62
2022/01/03 06:16:35;;;;;;;;;;;20.60;50.80;;;;;;4987776;28;19925;-62
2022/01/03 06:19:00;;;;;;;;;;;20.60;51.40;;;;;;4956762;29;19922;-62
2022/01/03 06:21:26;;;;;;;;;;;20.60;50.80;;;;;;4987468;28;19962;-62
2022/01/03 06:23:51;;;;;;;;;;;20.60;50.80;;;;;;4944628;29;19918;-62
2022/01/03 06:26:17;;;;;;;;;;;20.60;50.80;;;;;;4948016;29;20005;-62
2022/01/03 06:28:42;;;;;;;;;;;20.60;50.80;;;;;;4956314;29;19926;-62
2022/01/03 06:31:07;;;;;;;;;;;20.60;50.70;;;;;;4956298;29;19922;-62
2022/01/03 06:33:33;;;;;;;;;;;20.60;50.70;;;;;;4956281;29;19961;-62
2022/01/03 06:35:58;;;;;;;;;;;20.60;50.70;;;;;;4956301;29;19915;-61
2022/01/03 06:38:24;;;;;;;;;;;20.60;50.70;;;;;;4955160;29;19957;-62
2022/01/03 06:40:49;;;;;;;;;;;20.70;50.90;;;;;;4956427;28;19972;-63
2022/01/03 06:43:15;;;;;;;;;;;20.60;50.80;;;;;;4955278;29;19921;-62
2022/01/03 06:45:40;;;;;;;;;;;20.60;50.80;;;;;;4956195;29;19918;-62
2022/01/03 06:48:05;;;;;;;;;;;20.60;50.80;;;;;;4955769;29;19914;-62
2022/01/03 06:50:34;;;;;;;;;;;20.60;50.90;;;;;;4956278;29;19985;-62
2022/01/03 06:52:59;;;;;;;;;;;20.60;51.00;;;;;;4955045;29;19915;-62
2022/01/03 06:55:24;;;;;;;;;;;20.50;51.00;;;;;;4955501;29;20296;-62
2022/01/03 06:57:50;;;;;;;;;;;20.50;51.30;;;;;;4965724;28;19925;-62
2022/01/03 07:00:16;;;;;;;;;;;20.50;51.10;;;;;;4950071;29;19918;-62
2022/01/03 07:02:42;;;;;;;;;;;20.50;51.10;;;;;;4955549;29;19921;-62
2022/01/03 07:05:11;;;;;;;;;;;20.50;51.70;;;;;;4956039;28;19922;-62
2022/01/03 07:07:36;;;;;;;;;;;20.50;51.00;;;;;;4954866;29;20398;-62
2022/01/03 07:10:02;;;;;;;;;;;20.50;51.00;;;;;;4955180;29;19922;-62
2022/01/03 07:12:28;;;;;;;;;;;20.40;50.90;;;;;;4954272;29;19914;-62
2022/01/03 07:20:03;;;;;;;;;;;20.40;50.90;;;;;;4962139;28;20064;-62
2022/01/03 07:22:28;;;;;;;;;;;20.40;50.90;;;;;;4954494;29;19915;-62
2022/01/03 07:24:54;;;;;;;;;;;20.40;50.80;;;;;;4949855;29;19922;-62
2022/01/03 07:27:19;;;;;;;;;;;20.40;50.80;;;;;;4954940;29;19911;-63
2022/01/03 07:29:47;;;;;;;;;;;20.50;50.70;;;;;;4986416;28;19961;-62
2022/01/03 07:32:12;;;;;;;;;;;20.50;50.70;;;;;;4955548;28;19922;-62
2022/01/03 07:34:38;;;;;;;;;;;20.50;50.70;;;;;;4955438;29;19910;-62
2022/01/03 07:37:03;;;;;;;;;;;20.50;50.70;;;;;;4952454;29;19968;-62
2022/01/03 07:39:30;;;;;;;;;;;20.50;50.70;;;;;;4985676;28;20268;-61
2022/01/03 07:41:56;;;;;;;;;;;20.40;50.60;;;;;;4955045;28;20417;-62
2022/01/03 07:44:22;;;;;;;;;;;20.40;50.60;;;;;;4955407;29;20034;-62
2022/01/03 07:46:47;;;;;;;;;;;20.40;50.70;;;;;;4955031;29;20001;-62
2022/01/03 07:49:13;;;;;;;;;;;20.40;50.70;;;;;;4950570;29;19915;-62
2022/01/03 07:51:38;;;;;;;;;;;20.40;50.70;;;;;;4935440;29;19911;-62
2022/01/03 07:54:03;;;;;;;;;;;20.40;50.70;;;;;;4953217;28;19911;-62
2022/01/03 07:56:29;;;;;;;;;;;20.40;50.60;;;;;;4954814;29;20005;-61
2022/01/03 07:58:54;;;;;;;;;;;20.40;50.60;;;;;;4954593;29;19919;-62
2022/01/03 08:01:20;;;;;;;;;;;20.40;50.60;;;;;;4953960;29;19925;-62
2022/01/03 08:03:45;;;;;;;;;;;20.40;50.50;;;;;;4954536;29;19921;-62
2022/01/03 08:06:11;;;;;;;;;;;20.40;50.40;;;;;;4954565;29;19921;-62
2022/01/03 08:08:36;;;;;;;;;;;20.40;50.20;;;;;;4953798;29;19917;-62
2022/01/03 08:11:02;;;;;;;;;;;20.50;50.20;;;;;;4954208;28;20005;-62
2022/01/03 08:13:27;;;;;;;;;;;20.50;50.20;;;;;;4953898;28;19961;-62
2022/01/03 08:16:01;;;;;;;;;;;20.50;50.20;;;;;;5130728;27;19946;-62
2022/01/03 08:18:26;;;;;;;;;;;20.50;50.20;;;;;;5130080;27;19911;-63
2022/01/03 08:20:53;;;;;;;;;;;20.50;50.20;;;;;;5130125;27;19929;-62
2022/01/03 08:23:19;;;;;;;;;;;20.50;50.20;;;;;;5123998;27;20317;-62
2022/01/03 08:25:44;;;;;;;;;;;20.50;50.10;;;;;;5130332;27;19912;-62
2022/01/03 08:28:10;;;;;;;;;;;20.50;50.10;;;;;;5129766;27;19911;-62
2022/01/03 08:30:35;;;;;;;;;;;20.50;50.10;;;;;;5130071;27;19915;-62
2022/01/03 08:33:01;;;;;;;;;;;20.50;50.00;;;;;;5129654;27;19907;-62
2022/01/03 08:35:26;;;;;;;;;;;20.50;50.00;;;;;;5129591;27;19959;-63
2022/01/03 08:37:52;;;;;;;;;;;20.50;50.00;;;;;;5127945;27;19947;-62
2022/01/03 08:40:17;;;;;;;;;;;20.50;50.00;;;;;;5129686;27;19915;-62
2022/01/03 08:42:43;;;;;;;;;;;20.50;50.00;;;;;;5129384;27;19911;-62
2022/01/03 08:45:09;;;;;;;;;;;20.50;50.00;;;;;;5126150;27;19908;-62
2022/01/03 08:47:34;;;;;;;;;;;20.50;50.00;;;;;;5129755;27;20044;-62
2022/01/03 08:49:59;;;;;;;;;;;20.50;50.00;;;;;;5129818;27;19912;-62
2022/01/03 08:52:25;;;;;;;;;;;20.50;50.10;;;;;;5128518;27;19916;-62
2022/01/03 08:54:50;;;;;;;;;;;20.50;50.00;;;;;;5129051;27;19916;-62
2022/01/03 08:57:16;;;;;;;;;;;20.50;50.00;;;;;;5129070;27;19907;-62
2022/01/03 08:59:42;;;;;;;;;;;20.50;50.00;;;;;;5129645;27;19915;-62
2022/01/03 09:02:07;;;;;;;;;;;20.50;49.90;;;;;;5128990;27;19912;-62
2022/01/03 09:04:33;;;;;;;;;;;20.50;49.90;;;;;;5113262;27;19912;-62
2022/01/03 09:06:59;;;;;;;;;;;20.50;49.90;;;;;;5107868;28;19916;-62
2022/01/03 09:09:27;;;;;;;;;;;20.50;49.90;;;;;;5098698;28;19908;-62
2022/01/03 09:11:52;;;;;;;;;;;20.50;49.90;;;;;;5092639;28;19999;-62
2022/01/03 09:14:18;;;;;;;;;;;20.50;49.90;;;;;;5095897;28;20051;-62
2022/01/03 09:16:43;;;;;;;;;;;20.50;49.80;;;;;;5094600;28;19948;-62
2022/01/03 09:19:09;;;;;;;;;;;20.50;49.90;;;;;;5121054;28;19915;-62
2022/01/03 09:21:34;;;;;;;;;;;20.50;49.80;;;;;;5087829;28;19966;-62
2022/01/03 09:24:44;;;;;;;;;;;20.50;49.90;;;;;;5100533;28;19916;-62
2022/01/03 09:29:35;;;;;;;;;;;20.50;49.90;;;;;;5094816;28;20441;-62
2022/01/03 09:32:01;;;;;;;;;;;20.50;49.90;;;;;;5094802;28;19909;-61
2022/01/03 09:34:26;;;;;;;;;;;20.50;49.90;;;;;;5094730;28;20316;-62
2022/01/03 09:36:52;;;;;;;;;;;20.50;50.00;;;;;;5084101;28;20287;-62
2022/01/03 09:39:17;;;;;;;;;;;20.50;50.00;;;;;;5074498;28;19978;-62
2022/01/03 09:41:43;;;;;;;;;;;20.50;50.00;;;;;;5074237;28;19959;-62
2022/01/03 09:44:11;;;;;;;;;;;20.50;49.90;;;;;;5074445;28;19912;-62
2022/01/03 09:46:40;;;;;;;;;;;20.50;50.00;;;;;;5088032;28;20010;-62
2022/01/03 09:49:06;;;;;;;;;;;20.50;49.90;;;;;;5094035;28;19916;-62
2022/01/03 09:51:31;;;;;;;;;;;20.50;49.90;;;;;;5085835;28;20391;-62
2022/01/03 09:54:00;;;;;;;;;;;20.50;49.90;;;;;;5092566;28;19923;-62
2022/01/03 09:56:26;;;;;;;;;;;20.50;50.00;;;;;;5075327;28;19917;-62
2022/01/03 09:58:52;;;;;;;;;;;20.50;50.00;;;;;;5090854;28;19916;-62
2022/01/03 10:01:17;;;;;;;;;;;20.50;50.00;;;;;;5090518;28;20287;-62
2022/01/03 10:03:47;;;;;;;;;;;20.50;50.00;;;;;;5074210;28;19962;-62
2022/01/03 10:06:13;;;;;;;;;;;20.50;50.00;;;;;;5073600;28;19912;-62
2022/01/03 10:08:39;;;;;;;;;;;20.50;50.10;;;;;;5089555;28;20015;-62
2022/01/03 10:11:04;;;;;;;;;;;20.50;50.00;;;;;;5084911;28;20003;-62
2022/01/03 10:13:29;;;;;;;;;;;20.50;50.10;;;;;;5075258;28;19924;-62
2022/01/03 10:15:55;;;;;;;;;;;20.50;50.00;;;;;;5087010;28;20423;-62
2022/01/03 10:18:20;;;;;;;;;;;20.50;50.10;;;;;;5088661;28;20395;-62
2022/01/03 10:20:46;;;;;;;;;;;20.50;50.10;;;;;;5078870;28;20422;-62
2022/01/03 10:23:14;;;;;;;;;;;20.50;50.00;;;;;;5092615;28;20365;-62
2022/01/03 10:25:40;;;;;;;;;;;20.50;50.10;;;;;;5084803;28;19916;-62
2022/01/03 10:28:05;;;;;;;;;;;20.50;50.00;;;;;;5092523;28;19916;-62
2022/01/03 10:30:32;;;;;;;;;;;20.50;50.00;;;;;;5093797;28;19920;-62
2022/01/03 10:32:58;;;;;;;;;;;20.50;50.10;;;;;;5092416;28;19970;-62
2022/01/03 10:35:23;;;;;;;;;;;20.50;50.00;;;;;;5090004;28;19967;-62
2022/01/03 10:37:49;;;;;;;;;;;20.60;50.10;;;;;;5079269;28;20346;-62
2022/01/03 10:40:35;;;;;;;;;;;20.50;50.10;;;;;;5090266;28;20007;-62
2022/01/03 10:43:14;;;;;;;;;;;20.50;50.10;;;;;;5090531;28;20320;-63
2022/01/03 10:45:39;;;;;;;;;;;20.50;50.20;;;;;;5085033;28;19912;-62
2022/01/03 10:48:05;;;;;;;;;;;20.50;50.10;;;;;;5089324;28;20292;-62
2022/01/03 10:50:30;;;;;;;;;;;20.50;50.20;;;;;;5125312;27;19922;-62
2022/01/03 10:52:56;;;;;;;;;;;20.50;50.20;;;;;;5087652;28;19920;-62
2022/01/03 10:55:23;;;;;;;;;;;20.50;50.20;;;;;;5085550;28;19988;-62
2022/01/03 10:57:48;;;;;;;;;;;20.50;50.20;;;;;;5089457;28;19958;-62
2022/01/03 11:00:17;;;;;;;;;;;20.50;50.30;;;;;;5093223;28;20340;-62
2022/01/03 11:03:04;;;;;;;;;;;20.40;50.80;;;;;;5092282;28;19912;-61
2022/01/03 11:05:38;;;;;;;;;;;20.50;50.90;;;;;;5092577;28;19912;-62
2022/01/03 11:10:44;;;;;;;;;;;20.70;50.50;;;;;;5078165;28;20003;-63
2022/01/03 11:13:13;;;;;;;;;;;20.80;50.30;;;;;;5095702;28;20326;-63
2022/01/03 11:15:40;;;;;;;;;;;21.00;50.30;;;;;;5085293;28;20335;-63
2022/01/03 11:18:09;;;;;;;;;;;21.10;50.00;;;;;;5091551;28;19916;-63
2022/01/03 11:20:34;;;;;;;;;;;21.30;49.90;;;;;;5084584;28;19923;-63
2022/01/03 11:22:59;;;;;;;;;;;21.30;49.60;;;;;;5075173;28;19916;-63
2022/01/03 11:25:28;;;;;;;;;;;21.40;50.30;;;;;;5077703;28;19951;-63
2022/01/03 11:27:54;;;;;;;;;;;21.50;49.50;;;;;;5089315;28;19919;-63
2022/01/03 11:30:20;;;;;;;;;;;21.50;49.50;;;;;;5090072;28;19912;-62
2022/01/03 11:32:48;;;;;;;;;;;21.60;50.00;;;;;;5089548;28;19916;-63
2022/01/03 11:35:14;;;;;;;;;;;21.60;49.30;;;;;;5089766;28;20376;-63
2022/01/03 11:37:40;;;;;;;;;;;21.70;49.30;;;;;;5083345;28;19913;-64
2022/01/03 11:40:06;;;;;;;;;;;21.70;49.40;;;;;;5080727;28;19924;-63
2022/01/03 11:42:32;;;;;;;;;;;21.70;49.20;;;;;;5087385;28;20364;-63
2022/01/03 11:44:58;;;;;;;;;;;21.70;49.30;;;;;;5089579;28;19912;-64
2022/01/03 11:47:23;;;;;;;;;;;21.80;49.30;;;;;;5123390;27;19958;-64
2022/01/03 11:49:50;;;;;;;;;;;21.80;49.20;;;;;;5088056;28;19951;-64
2022/01/03 11:52:15;;;;;;;;;;;21.80;49.20;;;;;;5088074;28;20015;-64
2022/01/03 11:54:41;;;;;;;;;;;21.80;49.20;;;;;;5122306;27;20003;-64
2022/01/03 11:57:14;;;;;;;;;;;21.80;49.20;;;;;;5091629;28;19919;-64
2022/01/03 12:05:28;;;;;;;;;;;22.00;49.10;;;;;;5091772;28;19919;-64
2022/01/03 12:07:54;;;;;;;;;;;22.00;49.10;;;;;;5071368;28;19920;-64
2022/01/03 12:10:20;;;;;;;;;;;22.00;49.20;;;;;;5085081;28;19937;-63
2022/01/03 12:12:45;;;;;;;;;;;22.00;49.10;;;;;;5090036;28;20296;-64
2022/01/03 12:15:30;;;;;;;;;;;22.00;49.00;;;;;;5083347;28;19982;-64
2022/01/03 12:17:58;;;;;;;;;;;22.10;49.10;;;;;;5082099;28;20035;-64
2022/01/03 12:20:36;;;;;;;;;;;22.10;49.20;;;;;;5090962;28;19936;-64
2022/01/03 12:23:02;;;;;;;;;;;22.10;49.10;;;;;;5086890;28;19916;-64
2022/01/03 12:25:29;;;;;;;;;;;22.10;49.00;;;;;;5087793;28;19958;-64
2022/01/03 12:27:58;;;;;;;;;;;22.10;49.00;;;;;;5088335;28;20003;-64
2022/01/03 12:30:28;;;;;;;;;;;22.10;49.10;;;;;;5071448;28;20338;-64
2022/01/03 12:33:09;;;;;;;;;;;22.20;49.10;;;;;;5089574;28;19912;-64
2022/01/03 12:35:34;;;;;;;;;;;22.20;49.00;;;;;;5087505;28;20361;-65
2022/01/03 12:38:03;;;;;;;;;;;22.20;48.90;;;;;;5099202;28;19991;-63
2022/01/03 12:40:30;;;;;;;;;;;22.30;49.00;;;;;;5082414;28;20364;-64
2022/01/03 12:43:00;;;;;;;;;;;22.30;48.70;;;;;;5085310;28;19965;-64
2022/01/03 12:45:25;;;;;;;;;;;22.30;48.80;;;;;;5090004;28;19964;-64
2022/01/03 12:47:51;;;;;;;;;;;22.30;48.80;;;;;;5087983;28;19913;-64
2022/01/03 12:50:28;;;;;;;;;;;22.30;48.80;;;;;;5091110;28;19963;-64
2022/01/03 12:52:54;;;;;;;;;;;22.30;48.90;;;;;;5102377;28;19912;-63
2022/01/03 12:55:38;;;;;;;;;;;22.30;49.00;;;;;;5089739;28;19917;-63
2022/01/03 12:58:13;;;;;;;;;;;22.30;48.90;;;;;;5085806;28;19968;-64
2022/01/03 13:00:38;;;;;;;;;;;22.30;48.80;;;;;;5076553;28;20002;-64
2022/01/03 13:03:22;;;;;;;;;;;22.30;48.50;;;;;;5076829;28;20330;-64
2022/01/03 13:06:06;;;;;;;;;;;22.30;48.40;;;;;;5095191;28;20310;-64
2022/01/03 13:08:32;;;;;;;;;;;22.40;48.50;;;;;;5093632;28;19947;-64
2022/01/03 13:11:01;;;;;;;;;;;22.40;48.40;;;;;;5090050;28;19951;-64
2022/01/03 13:13:29;;;;;;;;;;;22.40;48.40;;;;;;5092210;28;19912;-64
2022/01/03 13:15:57;;;;;;;;;;;22.40;48.30;;;;;;5092960;28;20039;-64
2022/01/03 13:18:23;;;;;;;;;;;22.40;48.30;;;;;;5092572;28;20462;-64
2022/01/03 13:20:55;;;;;;;;;;;22.40;48.30;;;;;;5093326;28;20015;-64
2022/01/03 13:23:20;;;;;;;;;;;22.40;48.30;;;;;;5090532;28;20068;-64
2022/01/03 13:25:46;;;;;;;;;;;22.40;48.20;;;;;;5094530;28;20394;-65
2022/01/03 13:28:11;;;;;;;;;;;22.40;48.20;;;;;;5085206;28;20376;-64
2022/01/03 13:30:37;;;;;;;;;;;22.40;48.20;;;;;;5092981;28;20364;-64
2022/01/03 13:33:02;;;;;;;;;;;22.40;48.90;;;;;;5094165;28;19912;-64
2022/01/03 13:35:28;;;;;;;;;;;22.40;48.20;;;;;;5092466;28;19924;-64
2022/01/03 13:37:53;;;;;;;;;;;22.40;48.10;;;;;;5092280;28;19923;-64
2022/01/03 13:40:21;;;;;;;;;;;22.40;48.10;;;;;;5090556;28;19912;-65
2022/01/03 13:43:00;;;;;;;;;;;22.50;48.10;;;;;;5082580;28;19912;-64
2022/01/03 13:50:41;;;;;;;;;;;22.40;48.30;;;;;;5093179;28;19927;-65
2022/01/03 13:53:07;;;;;;;;;;;22.40;48.60;;;;;;5090042;28;19912;-65
2022/01/03 13:55:33;;;;;;;;;;;22.40;48.60;;;;;;5086316;28;19927;-65
2022/01/03 13:58:03;;;;;;;;;;;22.40;48.60;;;;;;5091203;28;19912;-64
2022/01/03 14:00:29;;;;;;;;;;;22.50;48.70;;;;;;5087990;28;19957;-65
2022/01/03 14:02:54;;;;;;;;;;;22.40;48.60;;;;;;5124547;27;19916;-64
2022/01/03 14:05:20;;;;;;;;;;;22.40;48.70;;;;;;5084452;28;19916;-66
2022/01/03 14:07:52;;;;;;;;;;;22.50;48.80;;;;;;5091003;28;20015;-64
2022/01/03 14:10:18;;;;;;;;;;;22.40;48.70;;;;;;5093360;28;20420;-64
2022/01/03 14:12:48;;;;;;;;;;;22.50;48.80;;;;;;5092879;28;20010;-64
2022/01/03 14:15:15;;;;;;;;;;;22.50;48.90;;;;;;5072535;28;19923;-65
2022/01/03 14:17:47;;;;;;;;;;;22.50;48.90;;;;;;5125614;27;19916;-65
2022/01/03 14:20:12;;;;;;;;;;;22.50;48.90;;;;;;5124669;27;20666;-64
2022/01/03 14:22:38;;;;;;;;;;;22.50;48.90;;;;;;5088505;28;19912;-65
2022/01/03 14:25:07;;;;;;;;;;;22.50;48.90;;;;;;5120190;27;20557;-65
2022/01/03 14:27:36;;;;;;;;;;;22.50;48.90;;;;;;5090649;28;20439;-65
2022/01/03 14:30:20;;;;;;;;;;;22.50;48.80;;;;;;5082828;28;19916;-65
2022/01/03 14:32:46;;;;;;;;;;;22.60;48.80;;;;;;5096188;28;20389;-65
2022/01/03 14:35:12;;;;;;;;;;;22.60;48.80;;;;;;5094391;28;19970;-65
2022/01/03 14:37:38;;;;;;;;;;;22.60;48.70;;;;;;5085250;28;19913;-65